Time;durP1;ratioP1;P1;durP2;ratioP2;P2;SDS_P1;SDS_P2;PMS_P1;PMS_P2;Temp;Humidity;BMP_temperature;BMP_pressure;BME280_temperature;BME280_humidity;BME280_pressure;Samples;Min_cycle;Max_cycle;Signal;HPM_P1;HPM_P2
2021/10/25 00:00:30;;;;;;;8.15;4.18;;;;;;;2.71;100.00;101897.56;5011476;28;20040;-85
2021/10/25 00:02:56;;;;;;;11.02;4.45;;;;;;;2.58;100.00;101877.41;5041497;28;20048;-85
2021/10/25 00:05:23;;;;;;;13.82;4.93;;;;;;;2.64;100.00;101890.13;5032772;28;20048;-84
2021/10/25 00:07:49;;;;;;;9.40;4.18;;;;;;;2.66;100.00;101903.84;5006556;28;20037;-82
2021/10/25 00:10:15;;;;;;;8.98;4.50;;;;;;;2.63;100.00;101907.38;5024404;28;20039;-84
2021/10/25 00:12:41;;;;;;;8.50;3.78;;;;;;;2.53;100.00;101900.94;5020849;28;20060;-83
2021/10/25 00:15:09;;;;;;;7.43;4.10;;;;;;;2.40;100.00;101895.44;5033351;28;20076;-84
2021/10/25 00:17:35;;;;;;;9.00;3.92;;;;;;;2.40;100.00;101892.00;5028834;28;20037;-84
2021/10/25 00:20:02;;;;;;;9.23;4.20;;;;;;;2.37;100.00;101882.59;5005971;28;21426;-84
2021/10/25 00:22:28;;;;;;;10.13;4.32;;;;;;;2.36;100.00;101883.53;5033315;28;20052;-83
2021/10/25 00:24:54;;;;;;;8.50;4.18;;;;;;;2.31;100.00;101873.34;5020064;28;20047;-83
2021/10/25 00:27:20;;;;;;;6.93;4.03;;;;;;;2.34;100.00;101877.56;5056677;28;20037;-84
2021/10/25 00:29:46;;;;;;;7.93;3.75;;;;;;;2.39;100.00;101887.72;5037696;28;20070;-83
2021/10/25 00:32:11;;;;;;;9.38;4.13;;;;;;;2.32;100.00;101882.81;5003085;28;20076;-83
2021/10/25 00:34:37;;;;;;;11.57;4.80;;;;;;;2.22;100.00;101876.31;5038391;28;20040;-83
2021/10/25 00:37:08;;;;;;;7.63;3.60;;;;;;;2.27;100.00;101870.97;5040294;28;20043;-84
2021/10/25 00:39:34;;;;;;;9.13;4.10;;;;;;;2.17;100.00;101865.34;5043395;28;20037;-84
2021/10/25 00:42:03;;;;;;;7.18;4.00;;;;;;;2.22;100.00;101872.91;5054635;28;20029;-83
2021/10/25 00:44:30;;;;;;;7.55;3.95;;;;;;;2.14;100.00;101868.88;5054187;28;20133;-83
2021/10/25 00:46:58;;;;;;;7.68;3.75;;;;;;;2.03;100.00;101852.13;5037426;28;20049;-84
2021/10/25 00:49:24;;;;;;;8.73;4.03;;;;;;;2.09;100.00;101869.97;5011549;28;20044;-84
2021/10/25 00:51:51;;;;;;;7.97;3.90;;;;;;;2.05;100.00;101868.44;5027065;28;20041;-83
2021/10/25 00:54:17;;;;;;;11.23;3.90;;;;;;;2.09;100.00;101864.81;5024372;28;20059;-83
2021/10/25 00:56:45;;;;;;;9.85;4.40;;;;;;;1.97;100.00;101873.94;5034295;28;20491;-85
2021/10/25 00:59:12;;;;;;;7.63;4.10;;;;;;;1.91;100.00;101863.84;5026477;28;20029;-83
2021/10/25 01:01:38;;;;;;;7.03;3.88;;;;;;;1.94;100.00;101858.53;5041558;28;20037;-84
2021/10/25 01:04:04;;;;;;;9.82;4.35;;;;;;;1.88;100.00;101872.56;5049390;28;20069;-82
2021/10/25 01:06:33;;;;;;;9.93;4.45;;;;;;;1.71;100.00;101857.75;5044291;28;20040;-83
2021/10/25 01:08:59;;;;;;;10.57;4.60;;;;;;;1.71;100.00;101856.88;5028682;28;20055;-81
2021/10/25 01:11:25;;;;;;;9.05;4.32;;;;;;;1.78;100.00;101871.25;5048995;28;20488;-83
2021/10/25 01:13:53;;;;;;;8.73;4.22;;;;;;;1.62;100.00;101840.00;5053171;28;20024;-81
2021/10/25 01:16:20;;;;;;;8.57;4.10;;;;;;;1.76;100.00;101849.78;5035926;28;20068;-83
2021/10/25 01:18:48;;;;;;;9.00;4.28;;;;;;;1.80;100.00;101863.44;5022070;28;20630;-82
2021/10/25 01:21:14;;;;;;;10.27;4.22;;;;;;;1.66;100.00;101835.56;5055412;28;20108;-82
2021/10/25 01:23:40;;;;;;;9.10;3.80;;;;;;;1.76;100.00;101852.38;5052887;28;20049;-81
2021/10/25 01:26:07;;;;;;;8.23;4.75;;;;;;;1.69;100.00;101835.41;5035965;28;20098;-82
2021/10/25 01:28:37;;;;;;;7.65;4.30;;;;;;;1.74;100.00;101852.44;5034834;28;20029;-82
2021/10/25 01:31:04;;;;;;;9.15;4.47;;;;;;;1.77;100.00;101848.03;5046225;28;20299;-81
2021/10/25 01:34:14;;;;;;;8.75;4.20;;;;;;;1.81;100.00;101834.06;5026220;28;20024;-82
2021/10/25 01:36:46;;;;;;;11.85;4.68;;;;;;;1.78;100.00;101821.28;5046989;28;20033;-81
2021/10/25 01:39:11;;;;;;;10.32;4.68;;;;;;;1.85;100.00;101838.22;5042295;28;20037;-82
2021/10/25 01:41:37;;;;;;;8.30;4.22;;;;;;;1.85;100.00;101830.47;5029536;28;20045;-81
2021/10/25 01:44:11;;;;;;;9.60;4.55;;;;;;;1.80;100.00;101825.47;5034832;28;20056;-81
2021/10/25 01:46:43;;;;;;;8.77;4.35;;;;;;;1.89;100.00;101839.78;5063490;28;20037;-81
2021/10/25 01:49:19;;;;;;;8.25;4.40;;;;;;;1.74;100.00;101812.78;5039479;28;20117;-81
2021/10/25 01:51:45;;;;;;;11.98;4.90;;;;;;;1.85;100.00;101830.47;5029231;28;21895;-81
2021/10/25 01:54:11;;;;;;;9.93;4.20;;;;;;;1.84;100.00;101828.78;5008604;28;20036;-81
2021/10/25 01:56:39;;;;;;;9.57;4.30;;;;;;;1.80;100.00;101832.38;5033141;28;20159;-81
2021/10/25 01:59:08;;;;;;;5.85;4.00;;;;;;;1.73;100.00;101818.84;5003787;28;20025;-81
2021/10/25 02:01:34;;;;;;;9.68;4.38;;;;;;;1.66;100.00;101830.38;5005165;28;20498;-81
2021/10/25 02:04:02;;;;;;;11.90;4.43;;;;;;;1.56;100.00;101814.38;5003867;28;20048;-82
2021/10/25 02:06:28;;;;;;;5.78;3.88;;;;;;;1.59;100.00;101823.78;5030268;28;20044;-81
2021/10/25 02:08:53;;;;;;;12.07;4.20;;;;;;;1.55;100.00;101830.81;5021294;28;20041;-81
2021/10/25 02:11:23;;;;;;;6.60;3.90;;;;;;;1.49;100.00;101824.13;5030442;28;20488;-81
2021/10/25 02:13:58;;;;;;;7.20;4.00;;;;;;;1.44;100.00;101820.06;5006089;28;20035;-81
2021/10/25 02:16:24;;;;;;;8.45;4.30;;;;;;;1.40;100.00;101813.31;5039369;28;20070;-81
2021/10/25 02:18:50;;;;;;;7.90;4.32;;;;;;;1.44;100.00;101822.63;5044172;28;20532;-81
2021/10/25 02:21:16;;;;;;;6.40;3.97;;;;;;;1.38;100.00;101815.13;5001798;28;20047;-81
2021/10/25 02:23:41;;;;;;;12.27;4.22;;;;;;;1.25;100.00;101807.00;5038257;28;20096;-81
2021/10/25 02:26:07;;;;;;;9.07;4.72;;;;;;;1.23;100.00;101811.41;5048354;28;20047;-81
2021/10/25 02:28:33;;;;;;;7.28;4.53;;;;;;;1.25;100.00;101813.00;5021433;28;20053;-81
2021/10/25 02:30:59;;;;;;;7.28;4.38;;;;;;;1.12;100.00;101789.38;5015686;28;20037;-81
2021/10/25 02:33:31;;;;;;;9.90;5.10;;;;;;;1.26;100.00;101811.25;5002354;28;20024;-82
2021/10/25 02:35:56;;;;;;;10.23;5.30;;;;;;;1.16;100.00;101788.34;5035415;28;20114;-81
2021/10/25 02:38:23;;;;;;;8.43;5.03;;;;;;;1.22;100.00;101809.72;5016052;28;20041;-81
2021/10/25 02:40:53;;;;;;;9.80;5.07;;;;;;;1.13;100.00;101795.38;5017529;28;20037;-81
2021/10/25 02:43:19;;;;;;;11.85;5.38;;;;;;;1.11;100.00;101787.72;5015273;28;20053;-81
2021/10/25 02:45:45;;;;;;;8.77;5.05;;;;;;;1.10;100.00;101792.94;5045617;28;20067;-81
2021/10/25 02:48:11;;;;;;;12.23;5.47;;;;;;;1.28;100.00;101814.63;5033020;28;20026;-81
2021/10/25 02:50:37;;;;;;;10.82;5.20;;;;;;;1.12;100.00;101794.56;5024601;28;20029;-81
2021/10/25 02:53:05;;;;;;;10.82;5.93;;;;;;;1.13;100.00;101787.63;5017196;28;20045;-81
2021/10/25 02:55:32;;;;;;;13.93;5.82;;;;;;;1.17;100.00;101802.97;4989098;28;20033;-81
2021/10/25 02:57:58;;;;;;;11.90;6.43;;;;;;;1.17;100.00;101794.38;5006043;28;20037;-81
2021/10/25 03:00:24;;;;;;;9.82;5.57;;;;;;;1.22;100.00;101799.38;5014500;28;20041;-81
2021/10/25 03:02:49;;;;;;;13.05;6.20;;;;;;;1.27;100.00;101807.78;5002205;28;20131;-80
2021/10/25 03:05:15;;;;;;;13.98;5.47;;;;;;;1.24;100.00;101795.81;5032116;28;20066;-82
2021/10/25 03:07:43;;;;;;;13.15;6.30;;;;;;;1.27;100.00;101802.63;5038767;28;20036;-81
2021/10/25 03:10:09;;;;;;;11.50;6.22;;;;;;;1.33;100.00;101794.63;5011318;28;20580;-81
2021/10/25 03:12:35;;;;;;;8.48;5.95;;;;;;;1.17;100.00;101771.97;5027799;28;20049;-81
2021/10/25 03:15:05;;;;;;;10.85;6.35;;;;;;;1.25;100.00;101782.00;5005869;28;20495;-81
2021/10/25 03:17:30;;;;;;;7.57;5.50;;;;;;;1.19;100.00;101771.91;5016324;28;20052;-81
2021/10/25 03:20:13;;;;;;;11.57;6.38;;;;;;;1.31;100.00;101799.00;5037166;28;20063;-81
2021/10/25 03:22:42;;;;;;;11.20;5.30;;;;;;;1.19;100.00;101769.31;5035499;28;20135;-80
2021/10/25 03:25:09;;;;;;;11.38;5.22;;;;;;;1.31;100.00;101781.75;5037274;28;20197;-81
2021/10/25 03:27:36;;;;;;;8.75;5.18;;;;;;;1.22;100.00;101771.78;5004446;28;20107;-80
2021/10/25 03:30:02;;;;;;;10.88;5.38;;;;;;;1.24;100.00;101789.81;5040855;28;20029;-81
2021/10/25 03:32:29;;;;;;;12.18;5.40;;;;;;;1.13;100.00;101769.53;5044072;28;20040;-81
2021/10/25 03:35:13;;;;;;;10.27;5.53;;;;;;;1.25;100.00;101794.91;4992274;28;20140;-81
2021/10/25 03:37:39;;;;;;;7.85;4.82;;;;;;;1.16;100.00;101784.94;5035066;28;20867;-81
2021/10/25 03:40:07;;;;;;;8.80;5.22;;;;;;;1.15;100.00;101780.69;5022268;28;20041;-81
2021/10/25 03:42:40;;;;;;;8.60;4.82;;;;;;;0.97;100.00;101764.97;5011118;28;20048;-81
2021/10/25 03:50:27;;;;;;;8.80;5.30;;;;;;;0.90;100.00;101758.38;5026985;28;20411;-81
2021/10/25 03:53:12;;;;;;;10.95;5.05;;;;;;;0.88;100.00;101747.25;5031823;28;20040;-81
2021/10/25 04:26:05;;;;;;;9.88;5.85;;;;;;;0.80;100.00;101779.47;5042601;28;20040;-81
2021/10/25 04:28:33;;;;;;;;;;;;;;;0.74;100.00;101776.19;5042706;28;20090;-81
2021/10/25 04:31:00;;;;;;;7.97;5.55;;;;;;;0.63;100.00;101762.84;5010415;28;20001;-81
2021/10/25 04:33:33;;;;;;;8.00;5.88;;;;;;;0.71;100.00;101765.13;5014755;28;20033;-81
2021/10/25 04:36:10;;;;;;;10.50;5.53;;;;;;;0.55;100.00;101741.66;5036018;28;20025;-81
2021/10/25 04:38:43;;;;;;;10.75;5.90;;;;;;;0.54;100.00;101753.69;5040643;28;20503;-81
2021/10/25 04:41:09;;;;;;;8.88;5.45;;;;;;;0.48;100.00;101743.59;5031051;28;20094;-81
2021/10/25 04:43:35;;;;;;;9.77;6.00;;;;;;;0.54;100.00;101752.88;5027908;28;20033;-81
2021/10/25 04:46:01;;;;;;;11.57;5.72;;;;;;;0.51;100.00;101765.88;5036996;28;20086;-81
2021/10/25 04:48:27;;;;;;;12.02;5.53;;;;;;;0.39;100.00;101751.69;5017273;28;20045;-81
2021/10/25 04:51:04;;;;;;;9.85;5.82;;;;;;;0.35;100.00;101745.78;5029825;28;20102;-81
2021/10/25 04:53:56;;;;;;;9.45;5.80;;;;;;;0.37;100.00;101748.31;5038810;28;20052;-81
2021/10/25 04:56:27;;;;;;;11.90;6.18;;;;;;;0.35;100.00;101752.69;5022115;28;20055;-81
2021/10/25 04:58:53;;;;;;;10.88;6.25;;;;;;;0.33;100.00;101745.00;5012897;28;20056;-80
2021/10/25 05:01:18;;;;;;;9.93;5.80;;;;;;;0.24;100.00;101737.59;5030504;28;20060;-81
2021/10/25 05:03:44;;;;;;;12.35;6.32;;;;;;;0.27;100.00;101729.75;5028792;28;20116;-81
2021/10/25 05:06:16;;;;;;;13.68;6.35;;;;;;;0.33;100.00;101742.44;5000879;28;20149;-80
2021/10/25 05:08:46;;;;;;;8.60;6.40;;;;;;;0.40;100.00;101753.38;5013028;28;20041;-81
2021/10/25 05:11:13;;;;;;;10.80;6.30;;;;;;;0.34;100.00;101738.09;5007745;28;20043;-80
2021/10/25 05:13:40;;;;;;;11.07;6.68;;;;;;;0.38;100.00;101753.44;5032111;28;20040;-82
2021/10/25 05:16:06;;;;;;;10.82;6.13;;;;;;;0.38;100.00;101744.84;5018781;28;20491;-80
2021/10/25 05:18:33;;;;;;;10.98;5.88;;;;;;;0.33;100.00;101742.44;5033318;28;20037;-80
2021/10/25 05:21:01;;;;;;;11.05;5.97;;;;;;;0.19;100.00;101718.88;5029369;28;20146;-80
2021/10/25 05:23:27;;;;;;;10.27;5.78;;;;;;;0.24;100.00;101727.28;5031094;28;20479;-80
2021/10/25 05:25:52;;;;;;;10.98;6.43;;;;;;;0.25;100.00;101735.88;5036437;28;20098;-81
2021/10/25 05:28:18;;;;;;;8.77;5.93;;;;;;;0.25;100.00;101736.72;5015365;28;20540;-80
2021/10/25 05:30:44;;;;;;;14.38;6.47;;;;;;;0.17;100.00;101710.31;5020958;28;20055;-81
2021/10/25 05:33:17;;;;;;;10.52;6.43;;;;;;;0.49;100.00;101745.31;5018032;28;20041;-82
2021/10/25 05:35:43;;;;;;;11.35;6.55;;;;;;;0.63;100.00;101746.53;5048731;28;20041;-81
2021/10/25 05:38:09;;;;;;;12.55;6.30;;;;;;;0.70;100.00;101740.22;5012115;28;20029;-81
2021/10/25 05:40:38;;;;;;;9.50;6.13;;;;;;;0.87;100.00;101748.16;5039315;28;20496;-82
2021/10/25 05:43:04;;;;;;;11.90;6.93;;;;;;;1.13;100.00;101741.13;5023465;28;20078;-80
2021/10/25 05:45:29;;;;;;;15.60;7.75;;;;;;;1.24;100.00;101725.19;5032855;28;20120;-81
2021/10/25 05:47:55;;;;;;;14.88;7.35;;;;;;;1.38;100.00;101722.06;5005620;28;20407;-81
2021/10/25 05:50:21;;;;;;;12.80;7.65;;;;;;;1.39;100.00;101715.97;5029059;28;20036;-81
2021/10/25 05:52:47;;;;;;;10.75;7.65;;;;;;;1.49;100.00;101709.53;5037801;28;20040;-82
2021/10/25 05:55:15;;;;;;;14.07;7.25;;;;;;;1.57;100.00;101709.22;5017964;28;20037;-81
2021/10/25 05:57:42;;;;;;;11.80;7.30;;;;;;;1.64;100.00;101703.72;5010712;28;20163;-81
2021/10/25 06:00:09;;;;;;;12.00;7.05;;;;;;;1.65;100.00;101699.38;5018937;28;20057;-81
2021/10/25 06:02:42;;;;;;;;;;;;;;;1.85;100.00;101729.56;5049621;28;20082;-82
2021/10/25 06:05:14;;;;;;;11.73;6.95;;;;;;;1.87;100.00;101722.56;5006657;28;19912;-82
2021/10/25 06:07:44;;;;;;;12.60;6.88;;;;;;;1.81;100.00;101691.78;5018525;28;20095;-81
2021/10/25 06:10:13;;;;;;;13.63;6.90;;;;;;;1.82;100.00;101707.22;5052141;28;20036;-81
2021/10/25 06:12:48;;;;;;;12.45;6.82;;;;;;;1.77;100.00;101685.88;5004624;28;20123;-81
2021/10/25 06:15:23;;;;;;;13.27;7.20;;;;;;;1.84;100.00;101708.00;5023927;28;20029;-81
2021/10/25 06:17:54;;;;;;;13.38;7.10;;;;;;;1.94;100.00;101709.31;5014584;28;20131;-81
2021/10/25 06:20:40;;;;;;;13.95;7.53;;;;;;;1.97;100.00;101712.66;5035280;28;20129;-81
2021/10/25 06:23:16;;;;;;;11.65;6.55;;;;;;;2.01;100.00;101711.63;5056241;28;20107;-81
2021/10/25 06:25:50;;;;;;;12.85;6.55;;;;;;;2.02;100.00;101716.72;5036059;28;20033;-81
2021/10/25 06:28:18;;;;;;;14.93;6.68;;;;;;;2.12;100.00;101727.50;5032716;28;20487;-81
2021/10/25 06:30:59;;;;;;;12.00;6.25;;;;;;;2.06;100.00;101725.19;5017721;28;20044;-82
2021/10/25 06:33:44;;;;;;;11.68;6.70;;;;;;;2.22;100.00;101733.94;5011938;28;20080;-81
2021/10/25 06:36:29;;;;;;;12.65;6.60;;;;;;;2.23;100.00;101727.03;5031896;28;20120;-81
2021/10/25 06:39:11;;;;;;;11.55;6.15;;;;;;;2.22;100.00;101720.16;5010884;28;20079;-81
2021/10/25 06:41:41;;;;;;;10.50;6.35;;;;;;;2.36;100.00;101730.75;5045297;28;20029;-81
2021/10/25 06:44:07;;;;;;;11.73;6.15;;;;;;;2.33;100.00;101723.13;5016469;28;20043;-81
2021/10/25 06:46:33;;;;;;;11.90;6.40;;;;;;;2.34;100.00;101732.56;5021433;28;20106;-80
2021/10/25 06:49:01;;;;;;;11.45;6.50;;;;;;;2.33;100.00;101736.91;5046212;28;20044;-81
2021/10/25 06:51:27;;;;;;;11.15;6.35;;;;;;;2.36;100.00;101729.94;4988672;28;20498;-81
2021/10/25 06:53:52;;;;;;;9.98;6.50;;;;;;;2.25;100.00;101709.69;5042088;28;20029;-80
2021/10/25 06:56:19;;;;;;;10.88;6.70;;;;;;;2.46;100.00;101733.75;5016353;28;20409;-82
2021/10/25 06:58:45;;;;;;;9.63;6.13;;;;;;;2.54;100.00;101731.66;5040250;28;20131;-81
2021/10/25 07:01:11;;;;;;;11.23;6.00;;;;;;;2.58;100.00;101735.81;5035711;28;20050;-81
2021/10/25 07:03:39;;;;;;;11.82;6.22;;;;;;;2.63;100.00;101720.03;5015215;28;20098;-81
2021/10/25 07:06:07;;;;;;;12.73;6.20;;;;;;;2.71;100.00;101742.09;5036746;28;20037;-81
2021/10/25 07:08:34;;;;;;;11.80;6.20;;;;;;;2.72;100.00;101736.00;5036314;28;20522;-81
2021/10/25 07:11:00;;;;;;;9.68;6.43;;;;;;;2.69;100.00;101748.25;5047982;28;20038;-81
2021/10/25 07:13:27;;;;;;;11.63;6.45;;;;;;;2.72;100.00;101750.72;5032511;28;20442;-81
2021/10/25 07:16:14;;;;;;;12.05;6.63;;;;;;;2.68;100.00;101755.19;5020608;28;20033;-81
2021/10/25 07:19:22;;;;;;;12.05;6.45;;;;;;;2.75;100.00;101744.53;5037529;28;20047;-81
2021/10/25 07:22:10;;;;;;;10.52;6.57;;;;;;;2.82;100.00;101748.53;5033245;28;20021;-81
2021/10/25 08:02:17;;;;;;;13.93;7.35;;;;;;;3.85;100.00;101756.47;5036536;28;20025;-84
2021/10/25 08:04:55;;;;;;;14.02;7.30;;;;;;;4.01;100.00;101761.72;5023453;28;20061;-85
2021/10/25 08:10:56;;;;;;;10.95;6.05;;;;;;;4.30;100.00;101755.03;5042424;28;20045;-84
2021/10/25 08:13:15;;;;;;;9.13;5.93;;;;;;;4.52;100.00;101764.25;5023648;28;20049;-85
2021/10/25 08:15:44;;;;;;;13.13;5.80;;;;;;;4.56;100.00;101752.78;5017036;28;20029;-83
2021/10/25 08:20:59;;;;;;;8.93;5.20;;;;;;;4.70;100.00;101741.66;5039939;28;20147;-83
2021/10/25 08:23:25;;;;;;;11.35;6.05;;;;;;;4.89;100.00;101765.69;5043535;28;20051;-85
2021/10/25 08:25:52;;;;;;;8.70;5.22;;;;;;;4.97;100.00;101771.34;5039767;28;20032;-81
2021/10/25 08:28:19;;;;;;;13.07;5.78;;;;;;;5.09;100.00;101764.59;5022822;28;20148;-82
2021/10/25 08:30:46;;;;;;;8.68;5.45;;;;;;;5.29;100.00;101768.66;5034775;28;20530;-82
2021/10/25 08:36:09;;;;;;;9.13;4.60;;;;;;;5.45;100.00;101768.63;5054708;28;20044;-82
2021/10/25 08:41:50;;;;;;;12.00;5.20;;;;;;;5.63;100.00;101774.53;5048653;28;20037;-82
2021/10/25 08:44:16;;;;;;;8.00;5.07;;;;;;;5.62;100.00;101773.69;5038627;28;20388;-82
2021/10/25 08:46:49;;;;;;;12.65;5.32;;;;;;;5.66;100.00;101767.38;5039318;28;20042;-82
2021/10/25 08:49:15;;;;;;;10.02;5.30;;;;;;;5.65;100.00;101759.66;5013919;28;20029;-82
2021/10/25 08:51:40;;;;;;;9.48;5.07;;;;;;;5.62;100.00;101752.88;5022765;28;20041;-83
2021/10/25 08:54:06;;;;;;;11.38;5.60;;;;;;;5.68;100.00;101745.66;5001942;28;20037;-83
2021/10/25 08:56:31;;;;;;;8.52;5.15;;;;;;;5.77;100.00;101750.31;5030736;28;20567;-82
2021/10/25 08:59:18;;;;;;;8.60;5.35;;;;;;;6.02;100.00;101747.09;5048668;28;20131;-82
2021/10/25 09:01:46;;;;;;;11.50;5.35;;;;;;;6.18;100.00;101744.44;5019296;28;20037;-81
2021/10/25 09:04:16;;;;;;;12.93;5.35;;;;;;;6.46;100.00;101745.31;5036632;28;20068;-83
2021/10/25 09:06:52;;;;;;;10.20;5.55;;;;;;;6.57;100.00;101750.69;5028339;28;20036;-82
2021/10/25 09:09:22;;;;;;;9.05;5.60;;;;;;;6.71;100.00;101739.44;5036744;28;20564;-83
2021/10/25 09:12:04;;;;;;;7.82;5.22;;;;;;;6.78;100.00;101735.47;5048218;28;20487;-82
2021/10/25 09:14:33;;;;;;;8.95;4.95;;;;;;;7.08;100.00;101747.50;5003660;28;20037;-82
2021/10/25 09:17:06;;;;;;;9.25;5.05;;;;;;;7.25;99.39;101751.63;5024640;28;20068;-82
2021/10/25 09:19:50;;;;;;;10.48;5.13;;;;;;;7.33;97.41;101739.75;5036660;28;20075;-83
2021/10/25 09:22:20;;;;;;;10.43;5.32;;;;;;;7.41;97.33;101719.19;5033846;28;20055;-81
2021/10/25 09:24:55;;;;;;;8.10;4.90;;;;;;;7.49;96.38;101725.69;5034378;28;20039;-82
2021/10/25 09:27:32;;;;;;;7.00;4.70;;;;;;;7.49;97.77;101718.66;5023312;28;20123;-81
2021/10/25 09:30:17;;;;;;;7.05;4.53;;;;;;;7.52;96.59;101712.44;5020520;28;20083;-82
2021/10/25 09:32:44;;;;;;;9.45;5.40;;;;;;;7.67;96.97;101694.91;5021785;28;20041;-82
2021/10/25 09:35:36;;;;;;;8.18;4.93;;;;;;;7.85;96.00;101705.84;5012472;28;20043;-80
2021/10/25 09:38:38;;;;;;;11.98;5.10;;;;;;;8.05;94.98;101713.16;5031758;28;20040;-82
2021/10/25 09:49:01;;;;;;;10.65;5.35;;;;;;;8.43;95.59;101725.34;5026744;28;20040;-82
2021/10/25 09:49:34;;;;;;;9.98;5.25;;;;;;;8.55;94.69;101745.41;5051349;28;20078;-84
2021/10/25 09:52:02;;;;;;;11.77;5.68;;;;;;;8.83;93.17;101738.19;5036892;28;20037;-83
2021/10/25 09:54:29;;;;;;;11.23;5.30;;;;;;;8.94;93.61;101737.41;5034034;28;20068;-84
2021/10/25 09:57:08;;;;;;;10.10;4.82;;;;;;;9.07;92.64;101746.03;5058587;28;20033;-84
2021/10/25 10:00:03;;;;;;;13.00;5.03;;;;;;;9.13;92.11;101740.34;5026895;28;20036;-84
2021/10/25 10:02:46;;;;;;;7.40;5.20;;;;;;;9.19;91.80;101739.06;5039313;28;20035;-83
2021/10/25 10:05:25;;;;;;;8.20;4.82;;;;;;;9.26;90.36;101731.59;5039721;28;20032;-84
2021/10/25 10:07:53;;;;;;;11.30;5.50;;;;;;;9.28;89.98;101727.09;5004607;28;20025;-82
2021/10/25 10:10:28;;;;;;;11.40;5.15;;;;;;;9.27;89.92;101725.44;5020925;28;20463;-85
2021/10/25 10:12:58;;;;;;;11.50;5.00;;;;;;;9.29;91.52;101729.59;5028383;28;20033;-84
2021/10/25 10:15:31;;;;;;;8.40;5.13;;;;;;;9.29;91.77;101729.59;5013889;28;20407;-83
2021/10/25 10:18:05;;;;;;;10.00;5.10;;;;;;;9.26;91.78;101721.97;5022802;28;20052;-84
2021/10/25 10:20:55;;;;;;;12.13;5.43;;;;;;;9.33;91.17;101714.50;5053893;28;20036;-83
2021/10/25 10:23:23;;;;;;;11.18;5.68;;;;;;;9.60;90.80;101706.34;5016705;28;21523;-85
2021/10/25 10:26:03;;;;;;;9.45;4.93;;;;;;;9.75;90.14;101701.72;5040780;28;20486;-84
2021/10/25 10:28:40;;;;;;;9.52;4.75;;;;;;;9.89;88.79;101714.59;5037922;28;20041;-86
2021/10/25 10:31:26;;;;;;;9.75;5.22;;;;;;;10.01;87.91;101717.22;5025733;28;20044;-85
2021/10/25 10:34:25;;;;;;;9.30;5.10;;;;;;;10.11;88.94;101707.69;5052263;28;20493;-84
2021/10/25 10:36:52;;;;;;;11.07;5.05;;;;;;;10.27;87.43;101702.91;5039228;28;20057;-85
2021/10/25 10:39:28;;;;;;;9.82;5.03;;;;;;;10.24;89.34;101700.50;5023125;28;20049;-83
2021/10/25 10:42:06;;;;;;;10.88;5.15;;;;;;;10.06;89.33;101704.59;5030279;28;20099;-84
2021/10/25 10:45:03;;;;;;;9.57;5.18;;;;;;;10.08;89.08;101705.31;5056561;28;20033;-84
2021/10/25 10:47:50;;;;;;;11.50;4.45;;;;;;;10.18;89.13;101708.03;5031269;28;20045;-81
2021/10/25 10:50:22;;;;;;;9.93;5.00;;;;;;;10.15;90.22;101703.84;5043163;28;20040;-84
2021/10/25 10:53:00;;;;;;;11.43;5.22;;;;;;;10.20;89.60;101700.88;5035884;28;20041;-81
2021/10/25 10:55:28;;;;;;;7.95;5.00;;;;;;;10.16;90.51;101702.09;5035335;28;20033;-83
2021/10/25 10:58:12;;;;;;;7.82;4.68;;;;;;;10.18;89.59;101713.28;5051282;28;20025;-83
2021/10/25 11:00:41;;;;;;;8.18;4.70;;;;;;;10.14;90.57;101710.06;5032201;28;20037;-83
2021/10/25 11:03:09;;;;;;;8.57;4.70;;;;;;;10.21;90.78;101719.13;5004867;28;20082;-85
2021/10/25 11:05:46;;;;;;;8.57;4.18;;;;;;;10.17;92.38;101722.94;5023053;28;20419;-86
2021/10/25 11:08:20;;;;;;;8.77;4.63;;;;;;;10.17;91.75;101716.84;5011289;28;20124;-84
2021/10/25 11:10:47;;;;;;;9.43;4.88;;;;;;;10.37;91.57;101717.94;5016387;28;20108;-88
2021/10/25 11:13:20;;;;;;;11.38;4.93;;;;;;;10.61;89.32;101716.00;5029332;28;20041;-85
2021/10/25 11:16:02;;;;;;;12.63;4.30;;;;;;;10.73;88.58;101715.97;5006094;28;20029;-84
2021/10/25 11:18:36;;;;;;;14.20;4.50;;;;;;;10.68;88.54;101721.56;5011016;28;20093;-85
2021/10/25 11:21:32;;;;;;;9.52;4.45;;;;;;;10.67;89.41;101715.50;5028684;28;20043;-85
2021/10/25 11:24:05;;;;;;;7.90;4.20;;;;;;;10.73;90.60;101702.84;5014545;28;20053;-86
2021/10/25 11:26:40;;;;;;;9.82;4.30;;;;;;;10.95;88.59;101715.06;5027192;28;20025;-84
2021/10/25 11:29:24;;;;;;;9.55;4.50;;;;;;;11.28;86.04;101708.81;5001940;28;20036;-83
2021/10/25 11:31:55;;;;;;;10.15;4.38;;;;;;;11.55;85.18;101697.81;5051402;28;20039;-85
2021/10/25 11:34:27;;;;;;;10.85;4.60;;;;;;;11.61;85.31;101699.91;5016714;28;20045;-84
2021/10/25 11:37:05;;;;;;;9.35;4.40;;;;;;;11.65;85.13;101698.69;5039950;28;20071;-82
2021/10/25 11:39:46;;;;;;;8.35;4.00;;;;;;;11.63;84.57;101700.59;5024321;28;20037;-83
2021/10/25 11:42:18;;;;;;;7.53;4.22;;;;;;;11.56;86.71;101691.56;5039022;28;20456;-84
2021/10/25 11:44:45;;;;;;;7.10;4.22;;;;;;;11.53;85.07;101693.63;5049612;28;20060;-85
2021/10/25 11:47:22;;;;;;;8.52;4.45;;;;;;;11.35;84.68;101685.50;5031549;28;20039;-85
2021/10/25 11:50:09;;;;;;;11.63;4.20;;;;;;;11.27;86.48;101678.28;5028648;28;20049;-84
2021/10/25 11:52:41;;;;;;;9.63;4.28;;;;;;;11.15;87.34;101677.50;5009050;28;20036;-82
2021/10/25 11:55:09;;;;;;;7.97;4.05;;;;;;;11.18;87.98;101685.13;5015462;28;20458;-83
2021/10/25 11:57:36;;;;;;;10.02;4.30;;;;;;;11.07;88.40;101678.13;5036753;28;20041;-85
2021/10/25 12:00:09;;;;;;;7.20;4.43;;;;;;;11.00;87.95;101681.38;5033038;28;20052;-84
2021/10/25 12:02:45;;;;;;;10.43;4.60;;;;;;;10.89;90.87;101683.09;5036882;28;20511;-85
2021/10/25 12:05:11;;;;;;;10.45;3.85;;;;;;;10.79;88.79;101684.78;5029475;28;20083;-85
2021/10/25 12:07:50;;;;;;;9.27;3.95;;;;;;;10.73;89.97;101677.44;5005666;28;20037;-83
2021/10/25 12:10:17;;;;;;;8.15;4.53;;;;;;;10.66;90.88;101678.88;5018100;28;20033;-85
2021/10/25 12:12:43;;;;;;;10.80;3.95;;;;;;;10.76;90.96;101679.00;5030411;28;20033;-84
2021/10/25 12:15:17;;;;;;;7.60;3.85;;;;;;;10.71;91.05;101680.16;5002000;28;20029;-84
2021/10/25 12:17:43;;;;;;;9.38;4.10;;;;;;;10.67;91.63;101670.88;5024353;28;20039;-84
2021/10/25 12:20:11;;;;;;;8.55;4.28;;;;;;;10.64;92.08;101675.53;5037065;28;20138;-84
2021/10/25 12:22:38;;;;;;;8.32;4.00;;;;;;;10.59;92.04;101675.09;5016325;28;20453;-86
2021/10/25 12:25:05;;;;;;;7.38;4.15;;;;;;;10.56;91.81;101680.59;5009466;28;20502;-85
2021/10/25 12:27:37;;;;;;;9.07;4.35;;;;;;;10.51;93.71;101678.34;5046040;28;20041;-85
2021/10/25 12:30:06;;;;;;;15.45;4.28;;;;;;;10.47;93.53;101674.28;5040371;28;20128;-83
2021/10/25 12:32:35;;;;;;;7.60;4.20;;;;;;;10.37;94.31;101668.13;5052864;28;20108;-83
2021/10/25 12:35:02;;;;;;;8.82;4.20;;;;;;;10.40;93.60;101671.34;5020457;28;20131;-85
2021/10/25 12:37:32;;;;;;;8.43;4.25;;;;;;;10.38;94.82;101675.88;5000100;28;20041;-85
2021/10/25 12:39:58;;;;;;;12.48;4.78;;;;;;;10.39;95.23;101658.34;5050739;28;20044;-85
2021/10/25 12:42:26;;;;;;;8.50;4.22;;;;;;;10.38;94.82;101664.53;5013300;28;20108;-84
2021/10/25 12:44:54;;;;;;;8.73;4.07;;;;;;;10.36;95.68;101656.81;5044806;28;20033;-84
2021/10/25 12:47:23;;;;;;;9.02;4.13;;;;;;;10.34;95.49;101656.09;5009432;28;20572;-83
2021/10/25 12:49:51;;;;;;;7.80;4.22;;;;;;;10.36;95.71;101646.31;5050841;28;20103;-83
2021/10/25 12:52:18;;;;;;;13.80;4.45;;;;;;;10.28;97.12;101648.66;5025956;28;20414;-85
2021/10/25 12:54:44;;;;;;;7.35;4.40;;;;;;;10.28;96.92;101640.78;5048631;28;20033;-85
2021/10/25 12:57:21;;;;;;;8.52;4.03;;;;;;;10.31;97.29;101643.22;5043587;28;20530;-84
2021/10/25 12:59:58;;;;;;;10.38;4.38;;;;;;;10.32;97.85;101642.25;5023574;28;20112;-83
2021/10/25 13:02:27;;;;;;;8.65;4.50;;;;;;;10.27;96.68;101642.59;5036024;28;20041;-83
2021/10/25 13:05:04;;;;;;;8.05;4.57;;;;;;;10.24;97.90;101644.63;5023905;28;20100;-86
2021/10/25 13:07:29;;;;;;;6.95;4.10;;;;;;;10.22;98.36;101629.00;5024745;28;20121;-81
2021/10/25 13:09:55;;;;;;;14.30;4.70;;;;;;;10.23;97.85;101635.09;5017915;28;20131;-81